sensor_id;sensor_type;location;lat;lon;timestamp;P1;durP1;ratioP1;P2;durP2;ratioP2
2039;SDS011;1025;42.686;23.350;2022-10-16T00:00:28;14.00;;;6.80;;
2039;SDS011;1025;42.686;23.350;2022-10-16T00:02:56;6.70;;;6.23;;
2039;SDS011;1025;42.686;23.350;2022-10-16T00:05:22;5.63;;;5.23;;
2039;SDS011;1025;42.686;23.350;2022-10-16T00:07:49;6.57;;;6.07;;
2039;SDS011;1025;42.686;23.350;2022-10-16T00:10:16;8.23;;;7.13;;
2039;SDS011;1025;42.686;23.350;2022-10-16T00:12:42;8.60;;;8.00;;
2039;SDS011;1025;42.686;23.350;2022-10-16T00:15:09;14.17;;;6.77;;
2039;SDS011;1025;42.686;23.350;2022-10-16T00:17:36;5.60;;;5.30;;
2039;SDS011;1025;42.686;23.350;2022-10-16T00:20:04;5.77;;;5.37;;
2039;SDS011;1025;42.686;23.350;2022-10-16T00:22:31;7.53;;;6.80;;
2039;SDS011;1025;42.686;23.350;2022-10-16T00:24:57;6.30;;;5.90;;
2039;SDS011;1025;42.686;23.350;2022-10-16T00:27:24;6.70;;;6.20;;
2039;SDS011;1025;42.686;23.350;2022-10-16T00:29:50;5.80;;;5.37;;
2039;SDS011;1025;42.686;23.350;2022-10-16T00:32:17;6.73;;;6.13;;
2039;SDS011;1025;42.686;23.350;2022-10-16T00:34:44;6.97;;;6.47;;
2039;SDS011;1025;42.686;23.350;2022-10-16T00:37:12;6.97;;;6.47;;
2039;SDS011;1025;42.686;23.350;2022-10-16T00:39:39;6.57;;;6.07;;
2039;SDS011;1025;42.686;23.350;2022-10-16T00:42:05;7.47;;;6.83;;
2039;SDS011;1025;42.686;23.350;2022-10-16T00:44:42;14.70;;;6.93;;
2039;SDS011;1025;42.686;23.350;2022-10-16T00:47:09;6.83;;;6.33;;
2039;SDS011;1025;42.686;23.350;2022-10-16T00:49:36;9.27;;;8.40;;
2039;SDS011;1025;42.686;23.350;2022-10-16T00:52:03;6.87;;;6.40;;
2039;SDS011;1025;42.686;23.350;2022-10-16T00:54:31;5.73;;;5.40;;
2039;SDS011;1025;42.686;23.350;2022-10-16T00:56:59;10.37;;;7.63;;
2039;SDS011;1025;42.686;23.350;2022-10-16T00:59:27;9.27;;;7.53;;
2039;SDS011;1025;42.686;23.350;2022-10-16T01:01:54;6.63;;;6.13;;
2039;SDS011;1025;42.686;23.350;2022-10-16T01:04:21;6.00;;;5.60;;
2039;SDS011;1025;42.686;23.350;2022-10-16T01:06:49;6.53;;;6.10;;
2039;SDS011;1025;42.686;23.350;2022-10-16T01:09:18;8.60;;;6.43;;
2039;SDS011;1025;42.686;23.350;2022-10-16T01:11:51;7.50;;;6.90;;
2039;SDS011;1025;42.686;23.350;2022-10-16T01:14:22;6.63;;;5.90;;
2039;SDS011;1025;42.686;23.350;2022-10-16T01:16:52;16.23;;;7.30;;
2039;SDS011;1025;42.686;23.350;2022-10-16T01:19:20;6.93;;;6.43;;
2039;SDS011;1025;42.686;23.350;2022-10-16T01:21:50;6.87;;;6.27;;
2039;SDS011;1025;42.686;23.350;2022-10-16T01:24:21;6.00;;;5.47;;
2039;SDS011;1025;42.686;23.350;2022-10-16T01:27:02;8.03;;;7.27;;
2039;SDS011;1025;42.686;23.350;2022-10-16T01:29:30;6.63;;;5.67;;
2039;SDS011;1025;42.686;23.350;2022-10-16T01:31:59;5.67;;;5.37;;
2039;SDS011;1025;42.686;23.350;2022-10-16T01:34:28;7.33;;;6.83;;
2039;SDS011;1025;42.686;23.350;2022-10-16T01:36:59;6.73;;;6.23;;
2039;SDS011;1025;42.686;23.350;2022-10-16T01:39:28;6.23;;;5.73;;
2039;SDS011;1025;42.686;23.350;2022-10-16T01:41:57;8.10;;;7.40;;
2039;SDS011;1025;42.686;23.350;2022-10-16T01:44:28;7.83;;;7.23;;
2039;SDS011;1025;42.686;23.350;2022-10-16T01:46:55;7.13;;;6.63;;
2039;SDS011;1025;42.686;23.350;2022-10-16T01:49:23;9.17;;;8.37;;
2039;SDS011;1025;42.686;23.350;2022-10-16T01:51:52;9.33;;;7.27;;
2039;SDS011;1025;42.686;23.350;2022-10-16T01:54:20;7.27;;;6.77;;
2039;SDS011;1025;42.686;23.350;2022-10-16T01:56:47;7.60;;;7.00;;
2039;SDS011;1025;42.686;23.350;2022-10-16T01:59:15;8.33;;;7.73;;
2039;SDS011;1025;42.686;23.350;2022-10-16T02:01:45;6.70;;;6.23;;
2039;SDS011;1025;42.686;23.350;2022-10-16T02:04:14;6.97;;;6.37;;
2039;SDS011;1025;42.686;23.350;2022-10-16T02:06:41;6.70;;;6.27;;
2039;SDS011;1025;42.686;23.350;2022-10-16T02:09:08;6.10;;;5.70;;
2039;SDS011;1025;42.686;23.350;2022-10-16T02:11:34;6.67;;;6.27;;
2039;SDS011;1025;42.686;23.350;2022-10-16T02:14:02;8.33;;;7.73;;
2039;SDS011;1025;42.686;23.350;2022-10-16T02:16:33;8.90;;;6.17;;
2039;SDS011;1025;42.686;23.350;2022-10-16T02:19:01;7.60;;;7.00;;
2039;SDS011;1025;42.686;23.350;2022-10-16T02:21:29;8.13;;;6.67;;
2039;SDS011;1025;42.686;23.350;2022-10-16T02:23:57;7.17;;;6.67;;
2039;SDS011;1025;42.686;23.350;2022-10-16T02:26:27;7.60;;;6.97;;
2039;SDS011;1025;42.686;23.350;2022-10-16T02:28:56;9.00;;;8.30;;
2039;SDS011;1025;42.686;23.350;2022-10-16T02:31:25;7.73;;;7.10;;
2039;SDS011;1025;42.686;23.350;2022-10-16T02:33:53;7.40;;;6.90;;
2039;SDS011;1025;42.686;23.350;2022-10-16T02:36:23;6.50;;;6.10;;
2039;SDS011;1025;42.686;23.350;2022-10-16T02:38:51;8.17;;;7.07;;
2039;SDS011;1025;42.686;23.350;2022-10-16T02:41:18;8.10;;;7.50;;
2039;SDS011;1025;42.686;23.350;2022-10-16T02:43:44;6.00;;;5.70;;
2039;SDS011;1025;42.686;23.350;2022-10-16T02:46:11;7.10;;;6.60;;
2039;SDS011;1025;42.686;23.350;2022-10-16T02:48:38;8.77;;;6.60;;
2039;SDS011;1025;42.686;23.350;2022-10-16T02:51:04;6.10;;;5.70;;
2039;SDS011;1025;42.686;23.350;2022-10-16T02:53:32;5.67;;;5.37;;
2039;SDS011;1025;42.686;23.350;2022-10-16T02:55:59;6.50;;;6.00;;
2039;SDS011;1025;42.686;23.350;2022-10-16T02:58:25;6.37;;;5.97;;
2039;SDS011;1025;42.686;23.350;2022-10-16T03:00:52;8.00;;;7.30;;
2039;SDS011;1025;42.686;23.350;2022-10-16T03:03:18;7.30;;;6.80;;
2039;SDS011;1025;42.686;23.350;2022-10-16T03:05:45;7.20;;;6.70;;
2039;SDS011;1025;42.686;23.350;2022-10-16T03:08:11;6.33;;;5.77;;
2039;SDS011;1025;42.686;23.350;2022-10-16T03:10:39;6.43;;;5.90;;
2039;SDS011;1025;42.686;23.350;2022-10-16T03:13:06;6.57;;;5.47;;
2039;SDS011;1025;42.686;23.350;2022-10-16T03:15:32;8.00;;;6.63;;
2039;SDS011;1025;42.686;23.350;2022-10-16T03:17:59;6.47;;;6.03;;
2039;SDS011;1025;42.686;23.350;2022-10-16T03:20:26;6.00;;;5.60;;
2039;SDS011;1025;42.686;23.350;2022-10-16T03:22:52;6.63;;;6.20;;
2039;SDS011;1025;42.686;23.350;2022-10-16T03:25:19;6.30;;;5.77;;
2039;SDS011;1025;42.686;23.350;2022-10-16T03:27:47;6.10;;;5.60;;
2039;SDS011;1025;42.686;23.350;2022-10-16T03:30:13;7.10;;;6.07;;
2039;SDS011;1025;42.686;23.350;2022-10-16T03:32:40;5.87;;;5.57;;
2039;SDS011;1025;42.686;23.350;2022-10-16T03:35:07;6.87;;;6.30;;
2039;SDS011;1025;42.686;23.350;2022-10-16T03:37:33;5.90;;;5.50;;
2039;SDS011;1025;42.686;23.350;2022-10-16T03:40:00;5.60;;;5.23;;
2039;SDS011;1025;42.686;23.350;2022-10-16T03:42:26;7.77;;;6.97;;
2039;SDS011;1025;42.686;23.350;2022-10-16T03:44:54;8.43;;;6.23;;
2039;SDS011;1025;42.686;23.350;2022-10-16T03:47:21;7.53;;;7.03;;
2039;SDS011;1025;42.686;23.350;2022-10-16T03:49:48;6.43;;;5.93;;
2039;SDS011;1025;42.686;23.350;2022-10-16T03:52:15;6.03;;;5.60;;
2039;SDS011;1025;42.686;23.350;2022-10-16T03:54:41;5.03;;;4.83;;
2039;SDS011;1025;42.686;23.350;2022-10-16T03:57:08;7.60;;;6.30;;
2039;SDS011;1025;42.686;23.350;2022-10-16T03:59:35;5.27;;;4.87;;
2039;SDS011;1025;42.686;23.350;2022-10-16T04:02:02;7.27;;;6.63;;
2039;SDS011;1025;42.686;23.350;2022-10-16T04:04:29;7.60;;;6.90;;
2039;SDS011;1025;42.686;23.350;2022-10-16T04:06:55;4.43;;;4.03;;
2039;SDS011;1025;42.686;23.350;2022-10-16T04:09:22;6.90;;;6.40;;
2039;SDS011;1025;42.686;23.350;2022-10-16T04:11:48;5.60;;;5.10;;
2039;SDS011;1025;42.686;23.350;2022-10-16T04:14:15;7.23;;;6.83;;
2039;SDS011;1025;42.686;23.350;2022-10-16T04:16:42;6.30;;;5.80;;
2039;SDS011;1025;42.686;23.350;2022-10-16T04:19:10;5.87;;;5.57;;
2039;SDS011;1025;42.686;23.350;2022-10-16T04:21:37;5.50;;;5.10;;
2039;SDS011;1025;42.686;23.350;2022-10-16T04:24:03;7.30;;;6.80;;
2039;SDS011;1025;42.686;23.350;2022-10-16T04:26:30;10.43;;;6.10;;
2039;SDS011;1025;42.686;23.350;2022-10-16T04:28:56;8.17;;;6.60;;
2039;SDS011;1025;42.686;23.350;2022-10-16T04:31:23;14.70;;;5.37;;
2039;SDS011;1025;42.686;23.350;2022-10-16T04:33:49;5.67;;;5.37;;
2039;SDS011;1025;42.686;23.350;2022-10-16T04:36:17;6.43;;;6.13;;
2039;SDS011;1025;42.686;23.350;2022-10-16T04:38:44;7.00;;;6.50;;
2039;SDS011;1025;42.686;23.350;2022-10-16T04:41:10;5.10;;;4.80;;
2039;SDS011;1025;42.686;23.350;2022-10-16T04:43:37;6.83;;;6.33;;
2039;SDS011;1025;42.686;23.350;2022-10-16T04:46:03;7.53;;;6.67;;
2039;SDS011;1025;42.686;23.350;2022-10-16T04:48:30;5.73;;;5.17;;
2039;SDS011;1025;42.686;23.350;2022-10-16T04:50:57;6.40;;;5.90;;
2039;SDS011;1025;42.686;23.350;2022-10-16T04:53:25;6.80;;;6.30;;
2039;SDS011;1025;42.686;23.350;2022-10-16T04:55:52;7.47;;;6.93;;
2039;SDS011;1025;42.686;23.350;2022-10-16T04:58:18;7.13;;;6.63;;
2039;SDS011;1025;42.686;23.350;2022-10-16T05:00:45;9.53;;;8.57;;
2039;SDS011;1025;42.686;23.350;2022-10-16T05:03:12;6.70;;;6.20;;
2039;SDS011;1025;42.686;23.350;2022-10-16T05:05:42;8.43;;;7.77;;
2039;SDS011;1025;42.686;23.350;2022-10-16T05:08:08;5.70;;;5.30;;
2039;SDS011;1025;42.686;23.350;2022-10-16T05:10:36;6.80;;;6.30;;
2039;SDS011;1025;42.686;23.350;2022-10-16T05:13:03;6.10;;;5.50;;
2039;SDS011;1025;42.686;23.350;2022-10-16T05:15:29;7.03;;;6.53;;
2039;SDS011;1025;42.686;23.350;2022-10-16T05:17:56;6.50;;;6.00;;
2039;SDS011;1025;42.686;23.350;2022-10-16T05:20:23;7.00;;;6.23;;
2039;SDS011;1025;42.686;23.350;2022-10-16T05:22:49;6.20;;;5.70;;
2039;SDS011;1025;42.686;23.350;2022-10-16T05:25:16;6.27;;;5.90;;
2039;SDS011;1025;42.686;23.350;2022-10-16T05:27:46;5.53;;;5.07;;
2039;SDS011;1025;42.686;23.350;2022-10-16T05:30:13;5.70;;;5.30;;
2039;SDS011;1025;42.686;23.350;2022-10-16T05:32:39;5.87;;;5.27;;
2039;SDS011;1025;42.686;23.350;2022-10-16T05:35:06;7.07;;;6.40;;
2039;SDS011;1025;42.686;23.350;2022-10-16T05:37:33;7.33;;;6.83;;
2039;SDS011;1025;42.686;23.350;2022-10-16T05:40:02;5.63;;;5.33;;
2039;SDS011;1025;42.686;23.350;2022-10-16T05:42:30;8.07;;;7.37;;
2039;SDS011;1025;42.686;23.350;2022-10-16T05:44:58;7.80;;;7.10;;
2039;SDS011;1025;42.686;23.350;2022-10-16T05:47:24;10.40;;;7.97;;
2039;SDS011;1025;42.686;23.350;2022-10-16T05:49:51;9.00;;;8.20;;
2039;SDS011;1025;42.686;23.350;2022-10-16T05:52:18;6.80;;;6.30;;
2039;SDS011;1025;42.686;23.350;2022-10-16T05:54:44;6.63;;;6.10;;
2039;SDS011;1025;42.686;23.350;2022-10-16T05:57:11;7.13;;;6.63;;
2039;SDS011;1025;42.686;23.350;2022-10-16T05:59:37;7.97;;;7.30;;
2039;SDS011;1025;42.686;23.350;2022-10-16T06:02:05;6.73;;;6.23;;
2039;SDS011;1025;42.686;23.350;2022-10-16T06:04:32;6.60;;;6.20;;
2039;SDS011;1025;42.686;23.350;2022-10-16T06:06:58;10.03;;;6.90;;
2039;SDS011;1025;42.686;23.350;2022-10-16T06:09:26;7.77;;;7.17;;
2039;SDS011;1025;42.686;23.350;2022-10-16T06:11:53;8.20;;;7.40;;
2039;SDS011;1025;42.686;23.350;2022-10-16T06:14:19;5.60;;;5.30;;
2039;SDS011;1025;42.686;23.350;2022-10-16T06:16:46;6.70;;;6.27;;
2039;SDS011;1025;42.686;23.350;2022-10-16T06:19:14;4.90;;;4.60;;
2039;SDS011;1025;42.686;23.350;2022-10-16T06:21:41;8.93;;;6.97;;
2039;SDS011;1025;42.686;23.350;2022-10-16T06:24:07;5.10;;;4.80;;
2039;SDS011;1025;42.686;23.350;2022-10-16T06:26:34;5.73;;;5.33;;
2039;SDS011;1025;42.686;23.350;2022-10-16T06:29:00;4.93;;;4.63;;
2039;SDS011;1025;42.686;23.350;2022-10-16T06:31:27;6.80;;;6.30;;
2039;SDS011;1025;42.686;23.350;2022-10-16T06:33:55;7.93;;;6.03;;
2039;SDS011;1025;42.686;23.350;2022-10-16T06:36:24;6.07;;;5.67;;
2039;SDS011;1025;42.686;23.350;2022-10-16T06:38:50;6.93;;;6.50;;
2039;SDS011;1025;42.686;23.350;2022-10-16T06:41:18;6.33;;;5.83;;
2039;SDS011;1025;42.686;23.350;2022-10-16T06:43:45;7.17;;;6.40;;
2039;SDS011;1025;42.686;23.350;2022-10-16T06:46:12;6.50;;;6.03;;
2039;SDS011;1025;42.686;23.350;2022-10-16T06:48:39;7.43;;;6.03;;
2039;SDS011;1025;42.686;23.350;2022-10-16T06:51:06;6.57;;;6.07;;
2039;SDS011;1025;42.686;23.350;2022-10-16T06:53:35;6.03;;;5.63;;
2039;SDS011;1025;42.686;23.350;2022-10-16T06:56:09;7.13;;;6.47;;
2039;SDS011;1025;42.686;23.350;2022-10-16T06:58:35;6.73;;;6.13;;
2039;SDS011;1025;42.686;23.350;2022-10-16T07:01:02;7.47;;;6.83;;
2039;SDS011;1025;42.686;23.350;2022-10-16T07:03:29;5.13;;;4.80;;
2039;SDS011;1025;42.686;23.350;2022-10-16T07:05:55;6.03;;;5.70;;
2039;SDS011;1025;42.686;23.350;2022-10-16T07:08:22;6.63;;;5.43;;
2039;SDS011;1025;42.686;23.350;2022-10-16T07:10:57;6.23;;;5.80;;
2039;SDS011;1025;42.686;23.350;2022-10-16T07:13:24;8.73;;;5.57;;
2039;SDS011;1025;42.686;23.350;2022-10-16T07:15:50;6.07;;;5.30;;
2039;SDS011;1025;42.686;23.350;2022-10-16T07:18:17;5.40;;;5.10;;
2039;SDS011;1025;42.686;23.350;2022-10-16T07:20:43;6.37;;;5.73;;
2039;SDS011;1025;42.686;23.350;2022-10-16T07:23:10;4.67;;;4.37;;
2039;SDS011;1025;42.686;23.350;2022-10-16T07:25:36;5.60;;;5.20;;
2039;SDS011;1025;42.686;23.350;2022-10-16T07:28:04;6.13;;;5.67;;
2039;SDS011;1025;42.686;23.350;2022-10-16T07:30:31;5.30;;;4.90;;
2039;SDS011;1025;42.686;23.350;2022-10-16T07:33:00;6.87;;;6.27;;
2039;SDS011;1025;42.686;23.350;2022-10-16T07:35:27;4.60;;;4.40;;
2039;SDS011;1025;42.686;23.350;2022-10-16T07:37:53;8.10;;;4.87;;
2039;SDS011;1025;42.686;23.350;2022-10-16T07:40:20;4.67;;;4.27;;
2039;SDS011;1025;42.686;23.350;2022-10-16T07:42:46;4.23;;;4.03;;
2039;SDS011;1025;42.686;23.350;2022-10-16T07:45:14;5.27;;;4.73;;
2039;SDS011;1025;42.686;23.350;2022-10-16T07:47:41;4.37;;;4.17;;
2039;SDS011;1025;42.686;23.350;2022-10-16T07:50:07;3.70;;;3.50;;
2039;SDS011;1025;42.686;23.350;2022-10-16T07:52:34;4.73;;;4.43;;
2039;SDS011;1025;42.686;23.350;2022-10-16T07:55:01;4.07;;;3.60;;
2039;SDS011;1025;42.686;23.350;2022-10-16T07:57:28;3.97;;;3.77;;
2039;SDS011;1025;42.686;23.350;2022-10-16T07:59:55;3.70;;;3.50;;
2039;SDS011;1025;42.686;23.350;2022-10-16T08:02:22;3.73;;;3.43;;
2039;SDS011;1025;42.686;23.350;2022-10-16T08:04:49;4.70;;;3.93;;
2039;SDS011;1025;42.686;23.350;2022-10-16T08:07:16;4.23;;;4.03;;
2039;SDS011;1025;42.686;23.350;2022-10-16T08:09:43;4.63;;;4.20;;
2039;SDS011;1025;42.686;23.350;2022-10-16T08:12:09;3.90;;;3.70;;
2039;SDS011;1025;42.686;23.350;2022-10-16T08:14:36;4.80;;;4.50;;
2039;SDS011;1025;42.686;23.350;2022-10-16T08:17:02;5.20;;;3.70;;
2039;SDS011;1025;42.686;23.350;2022-10-16T08:19:30;3.80;;;3.60;;
2039;SDS011;1025;42.686;23.350;2022-10-16T08:21:59;8.00;;;5.13;;
2039;SDS011;1025;42.686;23.350;2022-10-16T08:24:26;4.37;;;3.97;;
2039;SDS011;1025;42.686;23.350;2022-10-16T08:26:53;4.23;;;4.03;;
2039;SDS011;1025;42.686;23.350;2022-10-16T08:29:19;4.17;;;4.00;;
2039;SDS011;1025;42.686;23.350;2022-10-16T08:31:46;8.40;;;4.47;;
2039;SDS011;1025;42.686;23.350;2022-10-16T08:34:12;5.15;;;4.85;;
2039;SDS011;1025;42.686;23.350;2022-10-16T08:36:40;4.03;;;3.73;;
2039;SDS011;1025;42.686;23.350;2022-10-16T08:39:07;2.30;;;2.20;;
2039;SDS011;1025;42.686;23.350;2022-10-16T08:41:48;3.23;;;2.93;;
2039;SDS011;1025;42.686;23.350;2022-10-16T08:44:27;3.03;;;2.80;;
2039;SDS011;1025;42.686;23.350;2022-10-16T08:46:58;2.87;;;2.73;;
2039;SDS011;1025;42.686;23.350;2022-10-16T08:49:27;2.10;;;2.00;;
2039;SDS011;1025;42.686;23.350;2022-10-16T08:51:57;3.07;;;2.87;;
2039;SDS011;1025;42.686;23.350;2022-10-16T08:54:26;2.50;;;2.30;;
2039;SDS011;1025;42.686;23.350;2022-10-16T08:56:54;2.47;;;2.30;;
2039;SDS011;1025;42.686;23.350;2022-10-16T08:59:21;1.83;;;1.73;;
2039;SDS011;1025;42.686;23.350;2022-10-16T09:01:49;2.90;;;2.30;;
2039;SDS011;1025;42.686;23.350;2022-10-16T09:04:25;2.50;;;2.07;;
2039;SDS011;1025;42.686;23.350;2022-10-16T09:06:57;2.37;;;2.27;;
2039;SDS011;1025;42.686;23.350;2022-10-16T09:09:33;3.40;;;2.97;;
2039;SDS011;1025;42.686;23.350;2022-10-16T09:12:04;2.73;;;2.63;;
2039;SDS011;1025;42.686;23.350;2022-10-16T09:17:24;2.90;;;2.67;;
2039;SDS011;1025;42.686;23.350;2022-10-16T09:19:54;3.53;;;2.33;;
2039;SDS011;1025;42.686;23.350;2022-10-16T09:22:25;5.43;;;2.23;;
2039;SDS011;1025;42.686;23.350;2022-10-16T09:24:53;5.10;;;2.10;;
2039;SDS011;1025;42.686;23.350;2022-10-16T09:27:20;2.90;;;2.70;;
2039;SDS011;1025;42.686;23.350;2022-10-16T09:29:46;1.97;;;1.87;;
2039;SDS011;1025;42.686;23.350;2022-10-16T09:32:13;2.33;;;2.13;;
2039;SDS011;1025;42.686;23.350;2022-10-16T09:34:42;1.90;;;1.80;;
2039;SDS011;1025;42.686;23.350;2022-10-16T09:37:11;2.10;;;2.00;;
2039;SDS011;1025;42.686;23.350;2022-10-16T09:39:46;2.47;;;2.37;;
2039;SDS011;1025;42.686;23.350;2022-10-16T09:42:14;2.50;;;2.40;;
2039;SDS011;1025;42.686;23.350;2022-10-16T09:44:41;1.47;;;1.47;;
2039;SDS011;1025;42.686;23.350;2022-10-16T09:47:12;2.13;;;1.93;;
2039;SDS011;1025;42.686;23.350;2022-10-16T09:49:39;3.20;;;3.00;;
2039;SDS011;1025;42.686;23.350;2022-10-16T09:52:06;3.10;;;2.90;;
2039;SDS011;1025;42.686;23.350;2022-10-16T09:54:37;2.77;;;2.57;;
2039;SDS011;1025;42.686;23.350;2022-10-16T09:57:05;1.70;;;1.60;;
2039;SDS011;1025;42.686;23.350;2022-10-16T09:59:32;2.17;;;2.07;;
2039;SDS011;1025;42.686;23.350;2022-10-16T10:02:01;1.67;;;1.57;;
2039;SDS011;1025;42.686;23.350;2022-10-16T10:04:36;2.43;;;2.23;;
2039;SDS011;1025;42.686;23.350;2022-10-16T10:07:03;1.90;;;1.80;;
2039;SDS011;1025;42.686;23.350;2022-10-16T10:09:30;2.27;;;2.10;;
2039;SDS011;1025;42.686;23.350;2022-10-16T10:11:58;3.00;;;2.60;;
2039;SDS011;1025;42.686;23.350;2022-10-16T10:14:28;2.33;;;2.13;;
2039;SDS011;1025;42.686;23.350;2022-10-16T10:17:15;3.93;;;2.33;;
2039;SDS011;1025;42.686;23.350;2022-10-16T10:19:44;2.60;;;2.50;;
2039;SDS011;1025;42.686;23.350;2022-10-16T10:22:25;3.10;;;2.90;;
2039;SDS011;1025;42.686;23.350;2022-10-16T10:30:38;2.00;;;1.90;;
2039;SDS011;1025;42.686;23.350;2022-10-16T10:33:11;2.17;;;2.07;;
2039;SDS011;1025;42.686;23.350;2022-10-16T10:35:43;2.13;;;2.03;;
2039;SDS011;1025;42.686;23.350;2022-10-16T10:38:16;3.83;;;2.13;;
2039;SDS011;1025;42.686;23.350;2022-10-16T10:40:48;3.00;;;2.67;;
2039;SDS011;1025;42.686;23.350;2022-10-16T10:43:27;2.33;;;2.23;;
2039;SDS011;1025;42.686;23.350;2022-10-16T10:45:58;2.23;;;2.13;;
2039;SDS011;1025;42.686;23.350;2022-10-16T10:48:34;2.37;;;2.27;;
2039;SDS011;1025;42.686;23.350;2022-10-16T10:51:07;7.67;;;2.93;;
2039;SDS011;1025;42.686;23.350;2022-10-16T10:53:38;2.57;;;2.47;;
2039;SDS011;1025;42.686;23.350;2022-10-16T10:56:13;2.90;;;2.80;;
2039;SDS011;1025;42.686;23.350;2022-10-16T10:58:55;1.97;;;1.87;;
2039;SDS011;1025;42.686;23.350;2022-10-16T11:01:29;1.97;;;1.87;;
2039;SDS011;1025;42.686;23.350;2022-10-16T11:04:08;2.53;;;2.33;;
2039;SDS011;1025;42.686;23.350;2022-10-16T11:06:39;2.17;;;2.07;;
2039;SDS011;1025;42.686;23.350;2022-10-16T11:09:08;2.07;;;1.97;;
2039;SDS011;1025;42.686;23.350;2022-10-16T11:11:38;5.03;;;2.50;;
2039;SDS011;1025;42.686;23.350;2022-10-16T11:14:10;1.97;;;1.87;;
2039;SDS011;1025;42.686;23.350;2022-10-16T11:16:42;2.20;;;2.10;;
2039;SDS011;1025;42.686;23.350;2022-10-16T11:19:11;2.80;;;2.60;;
2039;SDS011;1025;42.686;23.350;2022-10-16T11:21:41;1.90;;;1.80;;
2039;SDS011;1025;42.686;23.350;2022-10-16T11:24:11;2.00;;;1.90;;
2039;SDS011;1025;42.686;23.350;2022-10-16T11:26:41;2.60;;;2.40;;
2039;SDS011;1025;42.686;23.350;2022-10-16T11:29:10;2.40;;;2.20;;
2039;SDS011;1025;42.686;23.350;2022-10-16T11:31:40;1.73;;;1.63;;
2039;SDS011;1025;42.686;23.350;2022-10-16T11:34:09;1.90;;;1.80;;
2039;SDS011;1025;42.686;23.350;2022-10-16T11:36:42;2.00;;;1.80;;
2039;SDS011;1025;42.686;23.350;2022-10-16T11:39:13;1.87;;;1.77;;
2039;SDS011;1025;42.686;23.350;2022-10-16T11:41:44;1.80;;;1.70;;
2039;SDS011;1025;42.686;23.350;2022-10-16T11:44:31;2.63;;;2.13;;
2039;SDS011;1025;42.686;23.350;2022-10-16T11:47:01;1.90;;;1.80;;
2039;SDS011;1025;42.686;23.350;2022-10-16T11:49:34;2.00;;;1.90;;
2039;SDS011;1025;42.686;23.350;2022-10-16T11:52:05;2.70;;;2.50;;
2039;SDS011;1025;42.686;23.350;2022-10-16T11:54:35;1.60;;;1.50;;
2039;SDS011;1025;42.686;23.350;2022-10-16T11:57:08;2.50;;;2.40;;
2039;SDS011;1025;42.686;23.350;2022-10-16T11:59:38;2.43;;;2.30;;
2039;SDS011;1025;42.686;23.350;2022-10-16T12:02:16;1.67;;;1.57;;
2039;SDS011;1025;42.686;23.350;2022-10-16T12:04:48;1.60;;;1.50;;
2039;SDS011;1025;42.686;23.350;2022-10-16T12:07:17;1.90;;;1.80;;
2039;SDS011;1025;42.686;23.350;2022-10-16T12:09:45;2.43;;;2.30;;
2039;SDS011;1025;42.686;23.350;2022-10-16T12:12:25;2.33;;;2.13;;
2039;SDS011;1025;42.686;23.350;2022-10-16T12:14:59;1.87;;;1.77;;
2039;SDS011;1025;42.686;23.350;2022-10-16T12:17:27;5.37;;;2.67;;
2039;SDS011;1025;42.686;23.350;2022-10-16T12:20:12;1.90;;;1.80;;
2039;SDS011;1025;42.686;23.350;2022-10-16T12:22:42;1.70;;;1.60;;
2039;SDS011;1025;42.686;23.350;2022-10-16T12:25:19;1.50;;;1.40;;
2039;SDS011;1025;42.686;23.350;2022-10-16T12:27:52;2.53;;;2.33;;
2039;SDS011;1025;42.686;23.350;2022-10-16T12:30:20;1.87;;;1.77;;
2039;SDS011;1025;42.686;23.350;2022-10-16T12:32:53;2.10;;;2.00;;
2039;SDS011;1025;42.686;23.350;2022-10-16T12:35:21;1.67;;;1.57;;
2039;SDS011;1025;42.686;23.350;2022-10-16T12:37:49;5.33;;;3.17;;
2039;SDS011;1025;42.686;23.350;2022-10-16T12:40:22;2.00;;;1.90;;
2039;SDS011;1025;42.686;23.350;2022-10-16T12:42:50;2.50;;;2.30;;
2039;SDS011;1025;42.686;23.350;2022-10-16T12:45:27;2.13;;;2.03;;
2039;SDS011;1025;42.686;23.350;2022-10-16T12:47:54;2.37;;;2.27;;
2039;SDS011;1025;42.686;23.350;2022-10-16T12:50:30;1.80;;;1.70;;
2039;SDS011;1025;42.686;23.350;2022-10-16T12:52:57;2.10;;;2.00;;
2039;SDS011;1025;42.686;23.350;2022-10-16T12:55:24;1.80;;;1.70;;
2039;SDS011;1025;42.686;23.350;2022-10-16T13:00:35;2.10;;;2.00;;
2039;SDS011;1025;42.686;23.350;2022-10-16T13:03:16;2.60;;;2.40;;
2039;SDS011;1025;42.686;23.350;2022-10-16T13:05:51;1.67;;;1.57;;
2039;SDS011;1025;42.686;23.350;2022-10-16T13:08:25;1.77;;;1.77;;
2039;SDS011;1025;42.686;23.350;2022-10-16T13:10:58;1.63;;;1.53;;
2039;SDS011;1025;42.686;23.350;2022-10-16T13:16:15;1.50;;;1.40;;
2039;SDS011;1025;42.686;23.350;2022-10-16T13:18:46;1.53;;;1.43;;
2039;SDS011;1025;42.686;23.350;2022-10-16T13:21:20;2.67;;;2.43;;
2039;SDS011;1025;42.686;23.350;2022-10-16T13:23:52;2.13;;;2.00;;
2039;SDS011;1025;42.686;23.350;2022-10-16T13:26:23;2.27;;;2.17;;
2039;SDS011;1025;42.686;23.350;2022-10-16T13:28:52;2.20;;;2.10;;
2039;SDS011;1025;42.686;23.350;2022-10-16T13:31:19;1.77;;;1.67;;
2039;SDS011;1025;42.686;23.350;2022-10-16T13:33:47;1.80;;;1.80;;
2039;SDS011;1025;42.686;23.350;2022-10-16T13:36:20;2.03;;;1.73;;
2039;SDS011;1025;42.686;23.350;2022-10-16T13:38:47;1.50;;;1.40;;
2039;SDS011;1025;42.686;23.350;2022-10-16T13:41:14;2.17;;;2.07;;
2039;SDS011;1025;42.686;23.350;2022-10-16T13:43:41;1.80;;;1.70;;
2039;SDS011;1025;42.686;23.350;2022-10-16T13:46:11;1.87;;;1.77;;
2039;SDS011;1025;42.686;23.350;2022-10-16T13:48:38;2.20;;;2.10;;
2039;SDS011;1025;42.686;23.350;2022-10-16T13:51:06;1.57;;;1.47;;
2039;SDS011;1025;42.686;23.350;2022-10-16T13:53:34;1.60;;;1.50;;
2039;SDS011;1025;42.686;23.350;2022-10-16T13:56:02;1.90;;;1.80;;
2039;SDS011;1025;42.686;23.350;2022-10-16T13:58:29;1.90;;;1.80;;
2039;SDS011;1025;42.686;23.350;2022-10-16T14:00:56;3.17;;;2.10;;
2039;SDS011;1025;42.686;23.350;2022-10-16T14:03:24;1.87;;;1.77;;
2039;SDS011;1025;42.686;23.350;2022-10-16T14:05:52;2.70;;;1.87;;
2039;SDS011;1025;42.686;23.350;2022-10-16T14:08:19;1.73;;;1.63;;
2039;SDS011;1025;42.686;23.350;2022-10-16T14:10:48;2.43;;;2.23;;
2039;SDS011;1025;42.686;23.350;2022-10-16T14:13:16;1.90;;;1.80;;
2039;SDS011;1025;42.686;23.350;2022-10-16T14:15:45;1.87;;;1.77;;
2039;SDS011;1025;42.686;23.350;2022-10-16T14:18:14;2.67;;;2.50;;
2039;SDS011;1025;42.686;23.350;2022-10-16T14:20:44;2.10;;;2.00;;
2039;SDS011;1025;42.686;23.350;2022-10-16T14:23:19;1.80;;;1.70;;
2039;SDS011;1025;42.686;23.350;2022-10-16T14:25:46;1.47;;;1.37;;
2039;SDS011;1025;42.686;23.350;2022-10-16T14:28:16;1.53;;;1.43;;
2039;SDS011;1025;42.686;23.350;2022-10-16T14:30:50;1.67;;;1.57;;
2039;SDS011;1025;42.686;23.350;2022-10-16T14:33:22;1.50;;;1.47;;
2039;SDS011;1025;42.686;23.350;2022-10-16T14:35:59;1.60;;;1.50;;
2039;SDS011;1025;42.686;23.350;2022-10-16T14:38:26;1.80;;;1.70;;
2039;SDS011;1025;42.686;23.350;2022-10-16T14:40:52;1.93;;;1.77;;
2039;SDS011;1025;42.686;23.350;2022-10-16T14:43:22;1.83;;;1.57;;
2039;SDS011;1025;42.686;23.350;2022-10-16T14:45:50;1.30;;;1.30;;
2039;SDS011;1025;42.686;23.350;2022-10-16T14:48:18;1.53;;;1.43;;
2039;SDS011;1025;42.686;23.350;2022-10-16T14:50:45;1.80;;;1.63;;
2039;SDS011;1025;42.686;23.350;2022-10-16T14:53:12;1.77;;;1.67;;
2039;SDS011;1025;42.686;23.350;2022-10-16T14:55:39;2.43;;;2.30;;
2039;SDS011;1025;42.686;23.350;2022-10-16T14:58:08;2.33;;;1.90;;
2039;SDS011;1025;42.686;23.350;2022-10-16T15:00:37;1.80;;;1.70;;
2039;SDS011;1025;42.686;23.350;2022-10-16T15:03:04;2.00;;;1.90;;
2039;SDS011;1025;42.686;23.350;2022-10-16T15:05:30;3.17;;;2.97;;
2039;SDS011;1025;42.686;23.350;2022-10-16T15:07:57;2.60;;;2.33;;
2039;SDS011;1025;42.686;23.350;2022-10-16T15:10:24;2.90;;;2.57;;
2039;SDS011;1025;42.686;23.350;2022-10-16T15:12:52;2.20;;;2.10;;
2039;SDS011;1025;42.686;23.350;2022-10-16T15:15:27;1.93;;;1.70;;
2039;SDS011;1025;42.686;23.350;2022-10-16T15:17:58;1.97;;;1.87;;
2039;SDS011;1025;42.686;23.350;2022-10-16T15:20:26;4.03;;;2.40;;
2039;SDS011;1025;42.686;23.350;2022-10-16T15:22:52;3.30;;;2.50;;